Time;durP1;ratioP1;P1;durP2;ratioP2;P2;SDS_P1;SDS_P2;PMS_P1;PMS_P2;Temp;Humidity;BMP_temperature;BMP_pressure;BME280_temperature;BME280_humidity;BME280_pressure;Samples;Min_cycle;Max_cycle;Signal;HPM_P1;HPM_P2
2023/05/01 00:00:12;;;;;;;13.70;7.20;;;7.60;99.90;;;;;;5029991;28;20044;-71
2023/05/01 00:02:38;;;;;;;15.13;7.38;;;7.60;99.90;;;;;;5027488;28;20037;-71
2023/05/01 00:05:05;;;;;;;10.30;6.53;;;7.60;99.90;;;;;;5027425;28;20053;-71
2023/05/01 00:07:31;;;;;;;11.98;6.57;;;7.50;99.90;;;;;;5045897;28;20291;-71
2023/05/01 00:09:56;;;;;;;12.67;6.53;;;7.50;99.90;;;;;;5044526;28;20052;-71
2023/05/01 00:12:23;;;;;;;15.37;7.50;;;7.50;99.90;;;;;;5031312;28;20820;-71
2023/05/01 00:14:49;;;;;;;12.80;6.70;;;7.50;99.90;;;;;;5044494;28;20041;-71
2023/05/01 00:17:15;;;;;;;13.02;7.65;;;7.50;99.90;;;;;;5031619;28;20037;-71
2023/05/01 00:19:41;;;;;;;10.85;6.60;;;7.40;99.90;;;;;;5039932;28;20033;-71
2023/05/01 00:22:10;;;;;;;11.80;6.33;;;7.40;99.90;;;;;;5044248;28;20043;-71
2023/05/01 00:24:36;;;;;;;13.60;6.93;;;7.40;99.90;;;;;;5046567;28;20047;-71
2023/05/01 00:27:02;;;;;;;10.45;6.25;;;7.40;99.90;;;;;;5045862;28;20127;-71
2023/05/01 00:29:28;;;;;;;11.70;6.07;;;7.40;99.90;;;;;;5029224;28;20321;-71
2023/05/01 00:31:54;;;;;;;11.33;5.83;;;7.40;99.90;;;;;;5035540;28;20444;-71
2023/05/01 00:34:20;;;;;;;10.70;5.90;;;7.30;99.90;;;;;;5040401;28;20040;-71
2023/05/01 00:36:46;;;;;;;11.73;6.63;;;7.30;99.90;;;;;;5028777;28;20568;-71
2023/05/01 00:39:11;;;;;;;12.13;6.60;;;7.30;99.90;;;;;;5046068;28;20041;-71
2023/05/01 00:41:37;;;;;;;12.60;6.53;;;7.30;99.90;;;;;;5041745;28;20044;-71
2023/05/01 00:44:03;;;;;;;12.87;6.27;;;7.30;99.90;;;;;;5022268;28;20190;-71
2023/05/01 00:46:30;;;;;;;12.97;6.30;;;7.30;99.90;;;;;;5042544;28;20033;-71
2023/05/01 00:48:57;;;;;;;13.23;6.20;;;7.20;99.90;;;;;;5030993;28;20051;-71
2023/05/01 00:51:26;;;;;;;9.50;5.72;;;7.20;99.90;;;;;;5039374;28;20049;-71
2023/05/01 00:53:51;;;;;;;9.48;6.50;;;7.20;99.90;;;;;;5044765;28;20505;-71
2023/05/01 00:56:17;;;;;;;11.67;5.60;;;7.20;99.90;;;;;;5046721;28;20079;-71
2023/05/01 00:58:51;;;;;;;11.50;6.50;;;7.10;99.90;;;;;;5039762;28;20033;-71
2023/05/01 01:01:16;;;;;;;11.98;6.15;;;7.10;99.90;;;;;;5019145;28;20703;-71
2023/05/01 01:03:42;;;;;;;13.30;6.40;;;7.10;99.90;;;;;;5025920;28;20033;-71
2023/05/01 01:06:40;;;;;;;13.23;5.90;;;7.10;99.90;;;;;;5030082;28;20060;-71
2023/05/01 01:09:24;;;;;;;11.40;5.82;;;7.10;99.90;;;;;;5046483;28;20493;-71
2023/05/01 01:12:23;;;;;;;13.13;5.72;;;7.00;99.90;;;;;;5027522;28;20048;-71
2023/05/01 01:15:05;;;;;;;11.93;5.65;;;7.00;99.90;;;;;;5007872;28;20060;-71
2023/05/01 01:17:52;;;;;;;10.00;5.85;;;7.00;99.90;;;;;;5043474;28;20044;-71
2023/05/01 01:20:20;;;;;;;11.63;5.63;;;6.90;99.90;;;;;;5042836;28;20055;-71
2023/05/01 01:22:58;;;;;;;9.40;5.35;;;6.90;99.90;;;;;;5040644;28;20901;-71
2023/05/01 01:26:00;;;;;;;9.95;5.00;;;6.90;99.90;;;;;;5037465;28;20150;-71
2023/05/01 01:28:47;;;;;;;9.68;5.63;;;6.90;99.90;;;;;;5048886;28;20067;-71
2023/05/01 01:31:21;;;;;;;9.60;5.80;;;6.80;99.90;;;;;;5040171;28;20041;-71
2023/05/01 01:34:03;;;;;;;11.32;6.40;;;6.80;99.90;;;;;;5039678;28;20056;-71
2023/05/01 01:36:36;;;;;;;11.35;6.10;;;6.70;99.90;;;;;;5049458;28;20071;-71
2023/05/01 01:39:22;;;;;;;8.55;5.82;;;6.70;99.90;;;;;;5027004;28;20688;-71
2023/05/01 01:41:51;;;;;;;11.23;5.53;;;6.70;99.90;;;;;;5045816;28;20033;-71
2023/05/01 01:44:41;;;;;;;10.07;5.25;;;6.60;99.90;;;;;;5029018;28;20072;-71
2023/05/01 01:47:11;;;;;;;11.00;4.63;;;6.60;99.90;;;;;;5034543;28;20057;-71
2023/05/01 01:49:43;;;;;;;12.10;6.00;;;6.60;99.90;;;;;;5026941;28;20045;-71
2023/05/01 01:52:13;;;;;;;12.70;5.90;;;6.60;99.90;;;;;;5031942;28;20041;-71
2023/05/01 01:54:44;;;;;;;10.77;5.50;;;6.50;99.90;;;;;;5046209;28;20041;-71
2023/05/01 01:57:13;;;;;;;10.43;5.22;;;6.50;99.90;;;;;;5044371;28;20040;-71
2023/05/01 01:59:41;;;;;;;10.43;4.90;;;6.50;99.90;;;;;;5048457;28;20060;-71
2023/05/01 02:02:07;;;;;;;9.32;5.10;;;6.50;99.90;;;;;;5033786;28;20041;-71
2023/05/01 02:04:34;;;;;;;8.13;4.72;;;6.50;99.90;;;;;;5028716;28;20083;-71
2023/05/01 02:07:00;;;;;;;9.18;4.78;;;6.50;99.90;;;;;;5027681;28;20389;-71
2023/05/01 02:09:29;;;;;;;7.15;4.70;;;6.50;99.90;;;;;;5041901;28;20357;-71
2023/05/01 02:11:56;;;;;;;9.65;5.15;;;6.50;99.90;;;;;;5049301;28;20045;-71
2023/05/01 02:14:25;;;;;;;9.38;4.95;;;6.40;99.90;;;;;;5045466;28;20114;-71
2023/05/01 02:16:52;;;;;;;8.38;4.68;;;6.40;99.90;;;;;;5050086;28;20040;-71
2023/05/01 02:19:20;;;;;;;7.65;4.82;;;6.40;99.90;;;;;;5041973;28;20041;-71
2023/05/01 02:21:47;;;;;;;10.00;5.43;;;6.30;99.90;;;;;;5047279;28;20112;-71
2023/05/01 02:24:14;;;;;;;8.45;4.88;;;6.30;99.90;;;;;;5024890;28;20083;-71
2023/05/01 02:26:48;;;;;;;10.38;5.03;;;6.30;99.90;;;;;;5030991;28;20043;-71
2023/05/01 02:29:14;;;;;;;7.60;5.13;;;6.30;99.90;;;;;;5046287;28;20596;-71
2023/05/01 02:31:40;;;;;;;8.13;5.20;;;6.30;99.90;;;;;;5024855;28;20133;-71
2023/05/01 02:34:06;;;;;;;8.47;4.67;;;6.20;99.90;;;;;;5048368;28;20649;-71
2023/05/01 02:36:32;;;;;;;7.53;4.93;;;6.20;99.90;;;;;;5047926;28;20103;-71
2023/05/01 02:38:59;;;;;;;11.88;4.78;;;6.20;99.90;;;;;;5044345;28;20494;-71
2023/05/01 02:41:27;;;;;;;10.13;5.10;;;6.20;99.90;;;;;;5043041;28;20041;-71
2023/05/01 02:43:59;;;;;;;10.65;4.85;;;6.20;99.90;;;;;;5048414;28;20064;-71
2023/05/01 02:46:26;;;;;;;10.43;5.38;;;6.20;99.90;;;;;;5045350;28;20572;-71
2023/05/01 02:48:54;;;;;;;8.65;5.13;;;6.20;99.90;;;;;;5025377;28;20079;-71
2023/05/01 02:51:22;;;;;;;8.77;5.05;;;6.10;99.90;;;;;;5044427;28;20484;-71
2023/05/01 02:53:48;;;;;;;8.25;4.63;;;6.10;99.90;;;;;;5039724;28;20413;-71
2023/05/01 02:56:15;;;;;;;12.93;4.85;;;6.10;99.90;;;;;;5025674;28;20451;-71
2023/05/01 02:58:41;;;;;;;9.75;5.40;;;6.10;99.90;;;;;;5028761;28;20040;-71
2023/05/01 03:01:07;;;;;;;9.15;4.63;;;6.10;99.90;;;;;;5031618;28;20048;-71
2023/05/01 03:03:32;;;;;;;11.50;5.37;;;6.10;99.90;;;;;;5026523;28;20047;-71
2023/05/01 03:05:58;;;;;;;10.63;4.93;;;6.00;99.90;;;;;;5038916;28;20041;-71
2023/05/01 03:08:24;;;;;;;8.30;4.63;;;6.00;99.90;;;;;;5039724;28;20074;-71
2023/05/01 03:10:50;;;;;;;9.30;5.13;;;6.00;99.90;;;;;;5035541;28;20045;-71
2023/05/01 03:13:15;;;;;;;9.73;5.00;;;6.00;99.90;;;;;;5032536;28;20128;-71
2023/05/01 03:15:42;;;;;;;9.63;4.93;;;5.90;99.90;;;;;;5043650;28;20037;-71
2023/05/01 03:18:08;;;;;;;8.52;4.97;;;5.90;99.90;;;;;;5025392;28;20033;-71
2023/05/01 03:20:34;;;;;;;8.98;4.75;;;5.90;99.90;;;;;;5031052;28;20083;-71
2023/05/01 03:22:59;;;;;;;9.40;4.80;;;5.90;99.90;;;;;;5030337;28;20041;-71
2023/05/01 03:25:25;;;;;;;10.83;5.27;;;5.80;99.90;;;;;;5048045;28;20037;-71
2023/05/01 03:27:51;;;;;;;10.33;5.13;;;5.90;99.90;;;;;;5030352;28;20299;-70
2023/05/01 03:30:18;;;;;;;10.07;5.50;;;5.80;99.90;;;;;;5029812;28;20094;-70
2023/05/01 03:32:43;;;;;;;10.18;5.10;;;5.80;99.90;;;;;;5045278;28;20055;-72
2023/05/01 03:35:09;;;;;;;9.47;4.80;;;5.80;99.90;;;;;;5049310;28;20032;-71
2023/05/01 03:37:35;;;;;;;9.13;4.90;;;5.80;99.90;;;;;;5029073;28;20036;-71
2023/05/01 03:40:01;;;;;;;8.97;5.17;;;5.70;99.90;;;;;;5043696;28;20033;-71
2023/05/01 03:42:26;;;;;;;9.50;4.80;;;5.70;99.90;;;;;;5047511;28;20134;-71
2023/05/01 03:44:52;;;;;;;6.93;4.53;;;5.70;99.90;;;;;;5021166;28;20083;-71
2023/05/01 03:47:18;;;;;;;15.73;5.27;;;5.60;99.90;;;;;;5047179;28;20072;-71
2023/05/01 03:49:44;;;;;;;10.93;5.37;;;5.60;99.90;;;;;;5048611;28;20037;-71
2023/05/01 03:52:13;;;;;;;9.98;5.13;;;5.60;99.90;;;;;;5047618;28;20044;-71
2023/05/01 03:54:39;;;;;;;10.32;5.32;;;5.60;99.90;;;;;;5047944;28;20045;-71
2023/05/01 03:57:05;;;;;;;9.63;4.67;;;5.60;99.90;;;;;;5037738;28;20086;-71
2023/05/01 03:59:30;;;;;;;8.87;4.77;;;5.60;99.90;;;;;;5034874;28;20079;-71
2023/05/01 04:01:56;;;;;;;9.30;5.30;;;5.60;99.90;;;;;;5031657;28;20458;-71
2023/05/01 04:04:22;;;;;;;11.43;5.93;;;5.50;99.90;;;;;;5046915;28;20052;-71
2023/05/01 04:06:48;;;;;;;11.50;5.10;;;5.50;99.90;;;;;;5031050;28;20049;-71
2023/05/01 04:09:15;;;;;;;9.82;5.65;;;5.60;99.90;;;;;;5023394;28;20119;-71
2023/05/01 04:11:40;;;;;;;10.10;5.60;;;5.60;99.90;;;;;;5030989;28;20496;-71
2023/05/01 04:14:06;;;;;;;9.70;5.50;;;5.60;99.90;;;;;;5047378;28;20199;-71
2023/05/01 04:16:32;;;;;;;8.83;5.53;;;5.60;99.90;;;;;;5031229;28;20170;-71
2023/05/01 04:18:58;;;;;;;11.83;5.80;;;5.60;99.90;;;;;;5042946;28;20136;-71
2023/05/01 04:21:23;;;;;;;10.37;5.87;;;5.70;99.90;;;;;;5022895;28;20032;-71
2023/05/01 04:23:49;;;;;;;13.67;5.80;;;5.70;99.90;;;;;;5025477;28;20139;-71
2023/05/01 04:26:15;;;;;;;11.53;5.83;;;5.70;99.90;;;;;;5048045;28;20040;-71
2023/05/01 04:28:41;;;;;;;11.65;5.47;;;5.80;99.90;;;;;;5046489;28;20047;-71
2023/05/01 04:31:07;;;;;;;10.40;5.57;;;5.80;99.90;;;;;;5017432;28;20145;-72
2023/05/01 04:33:32;;;;;;;12.37;6.57;;;5.80;99.90;;;;;;5033649;28;20156;-72
2023/05/01 04:35:58;;;;;;;10.10;5.90;;;5.90;99.90;;;;;;5043024;28;20040;-71
2023/05/01 04:38:24;;;;;;;10.17;6.17;;;6.00;99.90;;;;;;5047320;28;20072;-71
2023/05/01 04:40:51;;;;;;;14.37;5.77;;;6.00;99.90;;;;;;5017621;28;20048;-71
2023/05/01 04:43:16;;;;;;;12.20;5.60;;;6.10;99.90;;;;;;5019949;28;20151;-71
2023/05/01 04:45:42;;;;;;;11.23;5.83;;;6.20;99.90;;;;;;5033577;28;20183;-71
2023/05/01 04:48:08;;;;;;;12.03;6.33;;;6.20;99.90;;;;;;5044592;28;20564;-71
2023/05/01 04:50:33;;;;;;;11.03;6.60;;;6.30;99.90;;;;;;5044558;28;20043;-71
2023/05/01 04:52:59;;;;;;;10.23;5.67;;;6.40;99.90;;;;;;5038415;28;20144;-71
2023/05/01 04:55:25;;;;;;;12.23;5.70;;;6.50;99.90;;;;;;5044536;28;20124;-71
2023/05/01 04:57:50;;;;;;;10.33;5.97;;;6.60;99.90;;;;;;5030703;28;20040;-72
2023/05/01 05:00:18;;;;;;;13.80;6.17;;;6.70;99.90;;;;;;5039689;28;20041;-71
2023/05/01 05:02:45;;;;;;;10.10;5.85;;;6.70;99.90;;;;;;5021535;28;20037;-71
2023/05/01 05:05:11;;;;;;;11.27;5.95;;;6.80;99.90;;;;;;5044562;28;20037;-71
2023/05/01 05:07:36;;;;;;;16.43;6.03;;;6.90;99.90;;;;;;5025781;28;20493;-71
2023/05/01 05:10:02;;;;;;;15.97;5.93;;;6.90;99.90;;;;;;5027766;28;20032;-71
2023/05/01 05:12:28;;;;;;;12.43;6.13;;;7.00;99.90;;;;;;5029639;28;20048;-71
2023/05/01 05:14:54;;;;;;;11.73;6.27;;;7.10;99.90;;;;;;5037609;28;20111;-71
2023/05/01 05:17:19;;;;;;;10.30;6.40;;;7.10;99.90;;;;;;5038571;28;20489;-71
2023/05/01 05:19:45;;;;;;;11.73;6.23;;;7.20;99.90;;;;;;5014147;28;20068;-71
2023/05/01 05:22:11;;;;;;;12.07;6.20;;;7.20;99.90;;;;;;5024562;28;20073;-71
2023/05/01 05:24:37;;;;;;;10.40;6.20;;;7.30;99.90;;;;;;5038903;28;20037;-71
2023/05/01 05:27:05;;;;;;;10.30;5.70;;;7.40;99.90;;;;;;5042367;28;20674;-71
2023/05/01 05:29:31;;;;;;;12.02;5.88;;;7.40;99.90;;;;;;5025060;28;20118;-71
2023/05/01 05:31:58;;;;;;;9.68;5.70;;;7.50;99.90;;;;;;5019325;28;20050;-71
2023/05/01 05:34:24;;;;;;;12.73;6.20;;;7.60;99.90;;;;;;5032282;28;20474;-71
2023/05/01 05:36:50;;;;;;;10.43;6.27;;;7.60;99.90;;;;;;5017711;28;20037;-71
2023/05/01 05:39:16;;;;;;;9.53;5.90;;;7.60;99.90;;;;;;5028578;28;20329;-71
2023/05/01 05:41:42;;;;;;;11.73;6.00;;;7.70;99.90;;;;;;5025553;28;20048;-71
2023/05/01 05:44:07;;;;;;;12.23;6.03;;;7.70;99.90;;;;;;5024521;28;20492;-71
2023/05/01 05:46:33;;;;;;;12.87;6.03;;;7.80;99.90;;;;;;5046298;28;20055;-71
2023/05/01 05:48:59;;;;;;;10.27;5.03;;;7.80;99.90;;;;;;5030628;28;20056;-71
2023/05/01 05:51:25;;;;;;;7.90;5.53;;;7.90;99.90;;;;;;5030403;28;20127;-72
2023/05/01 05:53:51;;;;;;;10.57;5.97;;;7.90;99.90;;;;;;5019522;28;20092;-72
2023/05/01 05:56:16;;;;;;;13.60;6.43;;;8.00;99.90;;;;;;5036727;28;20076;-72
2023/05/01 05:58:42;;;;;;;12.50;6.37;;;8.00;99.90;;;;;;5028739;28;20072;-72
2023/05/01 06:01:08;;;;;;;10.43;6.10;;;8.10;99.90;;;;;;5030119;28;20074;-72
2023/05/01 06:03:34;;;;;;;14.13;6.27;;;8.10;99.90;;;;;;5044825;28;20525;-72
2023/05/01 06:06:01;;;;;;;14.88;6.47;;;8.20;99.90;;;;;;5020473;28;20052;-72
2023/05/01 06:08:27;;;;;;;10.63;6.20;;;8.30;99.90;;;;;;5046513;28;20485;-72
2023/05/01 06:10:52;;;;;;;9.57;5.73;;;8.40;99.90;;;;;;5029797;28;20052;-72
2023/05/01 06:13:18;;;;;;;12.17;6.30;;;8.50;99.90;;;;;;5027897;28;20355;-72
2023/05/01 06:15:44;;;;;;;11.03;5.90;;;8.60;99.90;;;;;;5050033;28;20425;-72
2023/05/01 06:18:10;;;;;;;10.02;5.60;;;8.70;99.90;;;;;;5032383;28;20044;-72
2023/05/01 06:20:36;;;;;;;12.20;5.70;;;8.80;99.90;;;;;;5049992;28;20037;-71
2023/05/01 06:23:02;;;;;;;11.48;6.07;;;9.00;99.90;;;;;;5031985;28;20044;-71
2023/05/01 06:25:28;;;;;;;11.50;6.37;;;9.10;99.90;;;;;;5049017;28;20059;-71
2023/05/01 06:27:55;;;;;;;12.13;6.45;;;9.20;99.90;;;;;;5032644;28;20093;-71
2023/05/01 06:30:20;;;;;;;11.15;6.13;;;9.40;99.90;;;;;;5043180;28;20048;-71
2023/05/01 06:32:47;;;;;;;8.90;5.70;;;9.50;99.90;;;;;;5050644;28;20394;-71
2023/05/01 06:35:13;;;;;;;10.07;5.90;;;9.70;99.90;;;;;;5024780;28;20374;-71
2023/05/01 06:37:38;;;;;;;8.27;5.73;;;9.80;99.90;;;;;;5047919;28;20064;-71
2023/05/01 06:40:08;;;;;;;9.70;5.87;;;10.00;99.90;;;;;;5033573;28;20075;-71
2023/05/01 06:42:39;;;;;;;8.82;5.40;;;10.10;99.90;;;;;;5048994;28;20394;-71
2023/05/01 06:45:06;;;;;;;10.30;5.22;;;10.30;99.90;;;;;;5049238;28;20116;-72
2023/05/01 06:47:32;;;;;;;9.05;5.85;;;10.50;99.90;;;;;;5048698;28;20033;-72
2023/05/01 06:49:57;;;;;;;9.00;5.50;;;10.60;99.90;;;;;;5032020;28;20040;-72
2023/05/01 06:52:23;;;;;;;9.67;5.57;;;10.70;99.90;;;;;;5033099;28;20480;-72
2023/05/01 06:54:49;;;;;;;10.35;5.97;;;10.90;99.90;;;;;;5026269;28;20080;-72
2023/05/01 06:57:15;;;;;;;11.47;5.87;;;11.00;99.90;;;;;;5027336;28;20072;-72
2023/05/01 06:59:41;;;;;;;9.90;5.90;;;11.10;99.90;;;;;;5024579;28;20123;-73
2023/05/01 07:02:06;;;;;;;9.77;6.00;;;11.20;99.90;;;;;;5044203;28;20584;-72
2023/05/01 07:04:32;;;;;;;11.57;6.30;;;11.30;99.90;;;;;;5046883;28;20047;-72
2023/05/01 07:06:59;;;;;;;9.27;5.63;;;11.40;99.90;;;;;;5029703;28;20128;-72
2023/05/01 07:09:25;;;;;;;11.40;6.40;;;11.50;99.90;;;;;;5049032;28;20573;-72
2023/05/01 07:11:51;;;;;;;12.90;6.63;;;11.60;99.90;;;;;;5027845;28;20131;-72
2023/05/01 07:14:17;;;;;;;9.47;5.43;;;11.70;99.90;;;;;;5049134;28;20051;-72
2023/05/01 07:16:42;;;;;;;7.00;5.10;;;11.80;99.90;;;;;;5041227;28;20098;-72
2023/05/01 07:19:08;;;;;;;8.80;5.13;;;12.00;99.90;;;;;;5047517;28;20029;-72
2023/05/01 07:21:34;;;;;;;9.00;5.37;;;12.00;99.90;;;;;;5028747;28;20037;-72
2023/05/01 07:23:59;;;;;;;10.87;5.90;;;12.10;99.90;;;;;;5047531;28;20115;-72
2023/05/01 07:26:26;;;;;;;10.10;5.67;;;12.20;99.90;;;;;;5043487;28;20037;-72
2023/05/01 07:28:51;;;;;;;8.37;5.80;;;12.30;99.90;;;;;;5027051;28;20045;-72
2023/05/01 07:31:17;;;;;;;10.93;5.87;;;12.30;99.90;;;;;;5046860;28;20298;-72
2023/05/01 07:33:43;;;;;;;9.53;5.40;;;12.40;99.90;;;;;;5041415;28;20037;-72
2023/05/01 07:36:10;;;;;;;9.00;5.47;;;12.50;99.90;;;;;;5025270;28;20043;-72
2023/05/01 07:38:36;;;;;;;7.70;5.03;;;12.60;99.90;;;;;;5041163;28;20363;-72
2023/05/01 07:41:01;;;;;;;10.20;5.57;;;12.70;99.90;;;;;;5035922;28;20370;-73
2023/05/01 07:43:27;;;;;;;11.07;5.40;;;12.80;99.90;;;;;;5031389;28;20505;-73
2023/05/01 07:45:56;;;;;;;12.23;5.60;;;13.00;99.90;;;;;;5044419;28;20055;-72
2023/05/01 07:48:21;;;;;;;9.53;5.50;;;13.10;99.90;;;;;;5024549;28;20067;-72
2023/05/01 07:50:47;;;;;;;12.03;6.43;;;13.20;99.90;;;;;;5022405;28;20423;-72
2023/05/01 07:53:13;;;;;;;10.23;5.67;;;13.30;99.90;;;;;;5029729;28;20037;-73
2023/05/01 07:55:39;;;;;;;9.17;5.40;;;13.40;99.90;;;;;;5026394;28;20041;-73
2023/05/01 07:58:05;;;;;;;10.50;5.67;;;13.50;99.90;;;;;;5043158;28;20290;-73
2023/05/01 08:00:30;;;;;;;10.73;5.80;;;13.70;99.90;;;;;;5045876;28;20071;-73
2023/05/01 08:02:56;;;;;;;10.07;5.90;;;13.80;99.90;;;;;;5038625;28;20121;-72
2023/05/01 08:05:22;;;;;;;9.10;5.00;;;14.00;99.90;;;;;;5037741;28;20539;-72
2023/05/01 08:07:48;;;;;;;8.97;5.50;;;14.20;99.90;;;;;;5037476;28;20041;-72
2023/05/01 08:10:14;;;;;;;8.67;4.80;;;14.30;99.90;;;;;;5013860;28;20049;-72
2023/05/01 08:12:40;;;;;;;8.47;4.50;;;14.50;99.90;;;;;;5040708;28;20044;-72
2023/05/01 08:15:06;;;;;;;9.80;4.63;;;14.60;99.90;;;;;;5035800;28;20277;-72
2023/05/01 08:17:33;;;;;;;9.83;4.73;;;14.70;99.90;;;;;;5034510;28;20518;-72
2023/05/01 08:19:59;;;;;;;9.37;4.60;;;14.90;99.90;;;;;;5018508;28;20626;-72
2023/05/01 08:22:25;;;;;;;6.03;2.90;;;15.00;98.80;;;;;;5025159;28;20759;-72
2023/05/01 08:24:51;;;;;;;7.77;3.03;;;15.10;87.50;;;;;;5020032;28;20138;-72
2023/05/01 08:27:17;;;;;;;7.77;3.57;;;15.00;73.80;;;;;;5031528;28;20052;-72
2023/05/01 08:29:43;;;;;;;10.47;4.17;;;15.10;76.10;;;;;;5036411;28;20529;-72
2023/05/01 08:32:09;;;;;;;8.40;3.63;;;15.20;72.70;;;;;;5048068;28;20294;-72
2023/05/01 08:34:35;;;;;;;6.83;3.50;;;15.20;72.80;;;;;;5041063;28;20306;-72
2023/05/01 08:37:01;;;;;;;7.50;4.17;;;15.40;74.20;;;;;;5040575;28;20536;-72
2023/05/01 08:39:27;;;;;;;13.57;4.90;;;15.50;73.30;;;;;;5026955;28;20390;-72
2023/05/01 08:41:52;;;;;;;8.00;3.90;;;15.60;73.10;;;;;;5045000;28;20373;-72
2023/05/01 08:44:25;;;;;;;11.63;5.50;;;15.60;73.00;;;;;;5043119;28;20057;-72
2023/05/01 08:47:16;;;;;;;7.93;4.67;;;15.70;74.00;;;;;;5039890;28;20132;-72
2023/05/01 08:49:43;;;;;;;11.50;4.37;;;15.90;72.10;;;;;;5017139;28;20639;-73
2023/05/01 08:52:14;;;;;;;7.23;3.90;;;15.80;69.90;;;;;;5030232;28;20294;-73
2023/05/01 08:54:44;;;;;;;9.50;4.33;;;15.90;71.40;;;;;;5035379;28;20303;-73
2023/05/01 08:57:11;;;;;;;7.00;4.10;;;15.90;70.10;;;;;;5041220;28;20279;-73
2023/05/01 08:59:37;;;;;;;9.60;4.83;;;16.00;70.10;;;;;;5042075;28;20295;-73
2023/05/01 09:02:05;;;;;;;7.63;3.80;;;16.00;68.60;;;;;;5024734;28;20868;-73
2023/05/01 09:04:39;;;;;;;11.63;4.43;;;16.10;68.10;;;;;;5024698;28;20345;-73
2023/05/01 09:07:06;;;;;;;9.10;3.50;;;16.00;63.10;;;;;;5040334;28;20287;-73
2023/05/01 09:09:32;;;;;;;9.07;3.47;;;16.10;63.70;;;;;;5023988;28;20044;-73
2023/05/01 09:12:22;;;;;;;8.87;2.97;;;16.20;63.80;;;;;;5019296;28;20284;-73
2023/05/01 09:14:49;;;;;;;6.70;3.20;;;16.30;62.40;;;;;;5017179;28;20811;-73
2023/05/01 09:17:15;;;;;;;8.17;3.67;;;16.50;63.30;;;;;;5028115;28;20283;-73
2023/05/01 09:19:41;;;;;;;7.10;3.33;;;16.60;64.70;;;;;;5027469;28;20350;-73
2023/05/01 09:22:08;;;;;;;7.10;2.73;;;16.80;64.50;;;;;;5026938;28;20045;-73
2023/05/01 09:24:33;;;;;;;5.73;2.30;;;16.90;64.60;;;;;;5023446;28;20044;-73
2023/05/01 09:27:00;;;;;;;7.50;2.90;;;17.00;59.10;;;;;;5044105;28;20279;-73
2023/05/01 09:29:44;;;;;;;3.37;1.77;;;17.00;58.90;;;;;;5039457;28;20041;-73
2023/05/01 09:32:20;;;;;;;5.47;2.20;;;17.20;60.00;;;;;;5038760;28;20647;-73
2023/05/01 09:34:47;;;;;;;4.10;1.83;;;17.30;58.40;;;;;;5024666;28;20298;-73
2023/05/01 09:37:31;;;;;;;8.00;2.90;;;17.40;59.50;;;;;;5039375;28;20333;-73
2023/05/01 09:40:04;;;;;;;5.97;2.67;;;17.60;58.60;;;;;;5021509;28;20382;-73
2023/05/01 09:42:31;;;;;;;8.83;2.17;;;17.60;57.70;;;;;;5044481;28;20353;-73
2023/05/01 09:45:02;;;;;;;3.97;2.10;;;17.70;58.80;;;;;;5050371;28;20292;-73
2023/05/01 09:47:29;;;;;;;5.23;1.80;;;17.80;58.40;;;;;;5029040;28;20284;-73
2023/05/01 09:49:58;;;;;;;4.93;2.53;;;17.90;57.60;;;;;;5023474;28;20283;-73
2023/05/01 09:52:29;;;;;;;6.47;2.57;;;18.00;56.70;;;;;;5045950;28;20912;-73
2023/05/01 09:55:17;;;;;;;5.23;2.03;;;18.20;56.60;;;;;;5030273;28;20331;-73
2023/05/01 09:57:45;;;;;;;4.60;2.13;;;18.20;58.20;;;;;;5043730;28;20283;-74
2023/05/01 10:00:14;;;;;;;6.07;2.57;;;18.40;58.60;;;;;;5026510;28;20617;-73
2023/05/01 10:02:42;;;;;;;5.63;2.17;;;18.50;56.90;;;;;;5022147;28;20337;-73
2023/05/01 10:05:11;;;;;;;6.57;2.67;;;18.50;58.00;;;;;;5029586;28;20760;-73
2023/05/01 10:07:38;;;;;;;5.40;2.00;;;18.60;55.80;;;;;;5025014;28;20294;-73
2023/05/01 10:10:20;;;;;;;4.87;2.40;;;18.70;57.80;;;;;;5042676;28;20288;-73
2023/05/01 10:12:46;;;;;;;3.83;2.27;;;18.80;56.70;;;;;;5045923;28;20378;-73
2023/05/01 10:15:12;;;;;;;3.90;2.20;;;18.80;57.00;;;;;;5025860;28;20285;-73
2023/05/01 10:17:39;;;;;;;5.20;2.40;;;18.70;56.70;;;;;;5047541;28;20333;-73
2023/05/01 10:20:12;;;;;;;4.63;2.00;;;18.60;56.40;;;;;;5026039;28;20061;-73
2023/05/01 10:22:39;;;;;;;5.73;2.00;;;18.70;55.40;;;;;;5038053;28;20329;-73
2023/05/01 10:25:10;;;;;;;7.67;2.07;;;18.70;56.10;;;;;;5044492;28;20053;-73
2023/05/01 10:27:38;;;;;;;5.57;1.80;;;18.80;55.30;;;;;;5047564;28;20053;-73
2023/05/01 10:30:05;;;;;;;3.33;1.80;;;18.90;54.60;;;;;;5040987;28;20348;-73
2023/05/01 10:32:31;;;;;;;6.20;2.40;;;19.00;54.30;;;;;;5043266;28;20037;-74
2023/05/01 10:35:04;;;;;;;5.20;1.90;;;19.00;53.90;;;;;;5029220;28;20733;-73
2023/05/01 10:37:57;;;;;;;5.87;2.03;;;18.80;53.70;;;;;;5024302;28;20480;-73
2023/05/01 10:40:38;;;;;;;3.10;1.53;;;18.80;53.60;;;;;;5025815;28;20037;-73
2023/05/01 10:43:26;;;;;;;4.37;1.70;;;18.80;53.00;;;;;;5027514;28;20102;-73
2023/05/01 10:45:53;;;;;;;2.97;1.57;;;18.80;52.20;;;;;;5023106;28;20136;-73
2023/05/01 10:48:41;;;;;;;5.93;1.57;;;18.80;54.70;;;;;;5029065;28;20119;-73
2023/05/01 10:51:11;;;;;;;5.60;1.73;;;18.80;52.80;;;;;;5030521;28;20136;-73
2023/05/01 10:53:44;;;;;;;2.90;1.60;;;18.80;56.10;;;;;;5030787;28;20073;-73
2023/05/01 10:56:31;;;;;;;3.90;1.60;;;18.90;54.00;;;;;;5030097;28;20477;-72
2023/05/01 10:58:59;;;;;;;4.03;1.80;;;18.90;52.80;;;;;;5019016;28;20733;-72
2023/05/01 11:01:28;;;;;;;4.20;1.90;;;18.80;54.30;;;;;;5032218;28;20049;-72
2023/05/01 11:03:55;;;;;;;5.63;1.67;;;18.80;54.40;;;;;;5034566;28;20059;-72
2023/05/01 11:06:22;;;;;;;5.90;1.80;;;18.80;54.10;;;;;;5044257;28;20401;-73
2023/05/01 11:08:48;;;;;;;3.40;1.83;;;18.80;54.40;;;;;;5025554;28;20052;-73
2023/05/01 11:11:20;;;;;;;5.43;1.70;;;18.70;55.30;;;;;;5023286;28;20072;-73
2023/05/01 11:13:58;;;;;;;5.90;1.83;;;18.60;54.80;;;;;;5045052;28;20037;-73
2023/05/01 11:16:36;;;;;;;5.50;1.97;;;18.50;55.30;;;;;;5038335;28;20526;-73
2023/05/01 11:19:03;;;;;;;4.57;2.00;;;18.50;55.00;;;;;;5063123;28;20398;-74
2023/05/01 11:21:32;;;;;;;7.37;2.33;;;18.40;56.40;;;;;;5021775;28;20060;-71
2023/05/01 11:23:59;;;;;;;2.50;1.63;;;18.20;54.30;;;;;;5040084;28;20045;-73
2023/05/01 11:26:26;;;;;;;6.63;1.77;;;17.90;55.40;;;;;;5017591;28;20290;-73
2023/05/01 11:28:54;;;;;;;6.20;2.00;;;17.60;57.40;;;;;;5025600;28;20271;-73
2023/05/01 11:31:20;;;;;;;4.07;2.10;;;17.50;56.90;;;;;;5016532;28;20594;-73
2023/05/01 11:33:46;;;;;;;4.93;2.33;;;17.40;58.90;;;;;;5022472;28;20303;-73
2023/05/01 11:36:13;;;;;;;6.43;2.50;;;17.20;59.50;;;;;;5019015;28;20314;-73
2023/05/01 11:38:50;;;;;;;6.67;2.33;;;17.00;58.60;;;;;;5037454;28;20370;-73
2023/05/01 11:41:20;;;;;;;6.43;2.33;;;16.90;60.00;;;;;;5044553;28;20308;-73
2023/05/01 11:43:55;;;;;;;5.67;2.07;;;16.80;61.50;;;;;;5039247;28;20296;-73
2023/05/01 11:46:31;;;;;;;5.50;2.40;;;16.80;62.70;;;;;;5023128;28;20279;-73
2023/05/01 11:49:00;;;;;;;5.10;2.70;;;16.80;62.30;;;;;;5026606;28;20175;-73
2023/05/01 11:51:26;;;;;;;5.90;2.60;;;16.80;61.80;;;;;;5029415;28;21101;-73
2023/05/01 11:54:05;;;;;;;7.07;2.83;;;16.70;62.20;;;;;;5031165;28;20350;-73
2023/05/01 11:56:33;;;;;;;5.03;2.37;;;16.70;62.80;;;;;;5023935;28;20366;-73
2023/05/01 11:59:08;;;;;;;5.87;3.10;;;16.80;63.80;;;;;;5046223;28;20314;-73
2023/05/01 12:01:45;;;;;;;8.60;3.13;;;16.70;62.00;;;;;;5047816;28;20311;-73
2023/05/01 12:04:12;;;;;;;8.13;3.63;;;16.70;63.40;;;;;;5036785;28;20306;-74
2023/05/01 12:06:45;;;;;;;8.70;3.47;;;16.70;64.20;;;;;;5038057;28;20297;-74
2023/05/01 12:09:27;;;;;;;8.30;4.07;;;16.80;62.60;;;;;;5025858;28;20337;-73
2023/05/01 12:11:54;;;;;;;7.97;4.03;;;16.90;62.40;;;;;;5040404;28;20366;-73
2023/05/01 12:14:20;;;;;;;7.57;4.00;;;16.90;63.10;;;;;;5046455;28;20720;-73
2023/05/01 12:16:47;;;;;;;8.87;3.87;;;16.80;62.20;;;;;;5045070;28;20279;-73
2023/05/01 12:19:14;;;;;;;6.67;4.30;;;16.70;63.40;;;;;;5041853;28;20283;-73
2023/05/01 12:21:40;;;;;;;8.53;5.00;;;16.60;64.30;;;;;;5045896;28;20352;-73
2023/05/01 12:24:17;;;;;;;7.07;4.20;;;16.50;64.10;;;;;;5039010;28;20782;-73
2023/05/01 12:26:44;;;;;;;8.70;4.97;;;16.50;63.80;;;;;;5044357;28;20294;-73
2023/05/01 12:29:10;;;;;;;6.63;4.50;;;16.40;63.80;;;;;;5022210;28;20287;-73
2023/05/01 12:31:45;;;;;;;9.97;4.47;;;16.30;64.50;;;;;;5026325;28;21480;-73
2023/05/01 12:34:11;;;;;;;10.07;4.97;;;16.20;65.20;;;;;;5047156;28;20714;-73
2023/05/01 12:36:37;;;;;;;11.73;5.13;;;16.10;65.90;;;;;;5038995;28;20041;-73
2023/05/01 12:39:05;;;;;;;9.87;5.53;;;16.10;66.90;;;;;;5025487;28;20275;-73
2023/05/01 12:41:38;;;;;;;8.37;5.33;;;16.00;68.00;;;;;;5039214;28;20276;-73
2023/05/01 12:44:18;;;;;;;9.37;5.40;;;16.00;69.70;;;;;;5027982;28;20736;-73
2023/05/01 12:46:44;;;;;;;9.83;5.60;;;16.00;71.40;;;;;;5043413;28;20283;-73
2023/05/01 12:49:17;;;;;;;10.83;6.03;;;15.90;71.20;;;;;;5038972;28;20320;-73
2023/05/01 12:51:51;;;;;;;10.50;6.73;;;15.90;72.30;;;;;;5028408;28;20306;-73
2023/05/01 12:54:22;;;;;;;13.65;6.38;;;15.90;74.20;;;;;;5028969;28;20644;-73